Time;durP1;ratioP1;P1;durP2;ratioP2;P2;SDS_P1;SDS_P2;PMS_P1;PMS_P2;Temp;Humidity;BMP_temperature;BMP_pressure;BME280_temperature;BME280_humidity;BME280_pressure;Samples;Min_cycle;Max_cycle;Signal;HPM_P1;HPM_P2
2021/07/05 00:00:04;;;;;;;2.17;1.15;;;16.90;17.00;;;;;;5105089;27;20437;-68
2021/07/05 00:02:54;;;;;;;1.70;0.70;;;16.90;17.80;;;;;;5107876;27;20058;-66
2021/07/05 00:05:43;;;;;;;0.63;0.60;;;16.90;16.80;;;;;;5103984;27;20525;-68
2021/07/05 00:08:32;;;;;;;0.85;0.70;;;16.90;16.80;;;;;;5101386;27;20048;-68
2021/07/05 00:11:21;;;;;;;1.77;0.60;;;16.80;17.40;;;;;;5102178;27;20059;-66
2021/07/05 00:14:10;;;;;;;2.17;0.80;;;16.90;17.40;;;;;;5101676;27;20541;-67
2021/07/05 00:17:00;;;;;;;1.25;0.70;;;16.90;17.40;;;;;;5105904;27;20058;-67
2021/07/05 00:19:48;;;;;;;1.10;0.80;;;17.00;17.50;;;;;;5111248;27;20507;-67
2021/07/05 00:22:36;;;;;;;1.88;0.80;;;17.00;17.00;;;;;;5107614;27;20177;-66
2021/07/05 00:25:25;;;;;;;1.65;0.80;;;16.90;17.60;;;;;;5100513;27;20044;-67
2021/07/05 00:28:15;;;;;;;1.42;1.10;;;16.90;17.70;;;;;;5100931;27;20048;-68
2021/07/05 00:31:04;;;;;;;1.33;0.90;;;16.80;17.90;;;;;;5106186;27;20036;-68
2021/07/05 00:33:53;;;;;;;1.25;0.60;;;16.80;18.50;;;;;;5111152;27;20044;-68
2021/07/05 00:36:41;;;;;;;1.50;0.88;;;16.70;19.20;;;;;;5105458;27;20418;-67
2021/07/05 00:39:30;;;;;;;1.02;0.90;;;16.70;19.60;;;;;;5104803;27;20056;-67
2021/07/05 00:42:18;;;;;;;1.83;0.82;;;16.70;20.00;;;;;;5104235;27;20566;-68
2021/07/05 00:45:10;;;;;;;1.20;0.75;;;16.60;20.20;;;;;;5092289;27;20146;-66
2021/07/05 00:47:59;;;;;;;1.95;0.88;;;16.70;20.80;;;;;;5107731;27;20055;-68
2021/07/05 00:50:47;;;;;;;1.10;0.70;;;16.70;20.70;;;;;;5108887;27;20051;-68
2021/07/05 00:53:36;;;;;;;3.40;1.30;;;16.70;20.20;;;;;;5105420;27;20048;-67
2021/07/05 00:56:24;;;;;;;3.08;0.95;;;16.70;20.90;;;;;;5102459;27;20169;-67
2021/07/05 00:59:14;;;;;;;4.05;0.98;;;16.70;21.40;;;;;;5101660;27;20039;-67
2021/07/05 01:02:04;;;;;;;1.20;0.98;;;16.70;21.70;;;;;;5109986;27;20403;-67
2021/07/05 01:04:53;;;;;;;1.65;0.98;;;16.70;21.30;;;;;;5105637;27;20036;-67
2021/07/05 01:07:42;;;;;;;3.53;0.95;;;16.80;21.90;;;;;;5102493;27;20503;-68
2021/07/05 01:10:31;;;;;;;1.98;0.85;;;16.80;21.50;;;;;;5099742;27;20063;-67
2021/07/05 01:13:20;;;;;;;2.28;1.08;;;16.80;22.30;;;;;;5102669;27;20062;-67
2021/07/05 01:16:08;;;;;;;2.55;1.00;;;16.80;21.60;;;;;;5104305;27;20119;-68
2021/07/05 01:18:59;;;;;;;1.58;1.00;;;16.80;21.50;;;;;;5101412;27;20048;-68
2021/07/05 01:21:48;;;;;;;1.58;1.27;;;16.80;21.60;;;;;;5104717;27;20066;-68
2021/07/05 01:24:37;;;;;;;2.20;1.65;;;16.90;21.40;;;;;;5105069;27;20166;-68
2021/07/05 01:27:26;;;;;;;2.80;2.03;;;16.80;21.90;;;;;;5107094;27;20043;-68
2021/07/05 01:30:17;;;;;;;12.35;2.10;;;16.70;22.00;;;;;;5106574;27;20051;-68
2021/07/05 01:33:07;;;;;;;3.22;1.70;;;16.80;22.00;;;;;;5102756;27;20067;-68
2021/07/05 01:35:56;;;;;;;3.90;1.95;;;16.90;22.70;;;;;;5104026;27;20036;-68
2021/07/05 01:38:46;;;;;;;5.60;2.10;;;16.80;22.90;;;;;;5103216;27;20066;-67
2021/07/05 01:41:34;;;;;;;4.95;2.45;;;16.80;22.70;;;;;;5109851;27;20043;-68
2021/07/05 01:44:23;;;;;;;4.57;1.80;;;16.70;23.20;;;;;;5104508;27;20040;-68
2021/07/05 01:47:12;;;;;;;3.50;2.08;;;16.90;23.80;;;;;;5103404;27;20075;-69
2021/07/05 01:50:00;;;;;;;3.13;2.20;;;16.90;23.20;;;;;;5102568;27;20054;-67
2021/07/05 01:52:49;;;;;;;1.80;1.50;;;17.00;22.90;;;;;;5108246;27;20036;-68
2021/07/05 01:55:39;;;;;;;3.05;1.40;;;17.00;23.30;;;;;;5103036;27;20065;-68
2021/07/05 01:58:28;;;;;;;1.42;1.13;;;16.90;23.20;;;;;;5102498;27;20044;-68
2021/07/05 02:01:17;;;;;;;1.40;0.98;;;17.00;23.10;;;;;;5098362;27;20063;-68
2021/07/05 02:04:09;;;;;;;3.25;1.38;;;17.00;23.10;;;;;;5102747;28;20525;-67
2021/07/05 02:06:57;;;;;;;1.35;1.00;;;17.00;23.30;;;;;;5106502;27;20051;-68
2021/07/05 02:09:47;;;;;;;2.60;1.05;;;17.00;23.40;;;;;;5102823;28;20053;-67
2021/07/05 02:12:36;;;;;;;1.77;1.40;;;17.00;22.90;;;;;;5103410;27;20077;-67
2021/07/05 02:15:25;;;;;;;3.88;1.38;;;16.90;23.40;;;;;;5103656;27;20044;-68
2021/07/05 02:18:14;;;;;;;4.28;1.35;;;17.00;23.30;;;;;;5087477;27;20066;-66
2021/07/05 02:21:06;;;;;;;1.52;1.10;;;16.90;23.50;;;;;;5103280;27;20044;-67
2021/07/05 02:23:55;;;;;;;3.17;1.20;;;16.80;24.10;;;;;;5102191;28;20042;-69
2021/07/05 02:26:44;;;;;;;2.83;1.42;;;16.90;24.50;;;;;;5100606;28;20050;-68
2021/07/05 02:29:35;;;;;;;1.40;1.30;;;17.00;23.80;;;;;;5101381;28;20108;-67
2021/07/05 02:32:23;;;;;;;2.15;1.17;;;17.00;23.30;;;;;;5104605;28;20122;-67
2021/07/05 02:35:14;;;;;;;1.40;1.20;;;17.00;23.40;;;;;;5104224;27;20056;-68
2021/07/05 02:38:04;;;;;;;2.97;1.20;;;17.00;23.40;;;;;;5101807;28;20156;-67
2021/07/05 02:40:54;;;;;;;2.25;1.60;;;17.00;23.30;;;;;;5099390;28;20051;-67
2021/07/05 02:43:43;;;;;;;2.38;1.40;;;17.10;22.50;;;;;;5103529;28;20051;-67
2021/07/05 02:46:33;;;;;;;2.53;1.48;;;17.10;21.50;;;;;;5102401;28;20065;-68
2021/07/05 02:49:21;;;;;;;2.17;1.58;;;17.10;22.30;;;;;;5107419;28;20102;-67
2021/07/05 02:52:09;;;;;;;1.85;1.40;;;17.10;21.30;;;;;;5102320;28;20036;-67
2021/07/05 02:54:58;;;;;;;5.15;1.40;;;17.20;20.80;;;;;;5101459;28;20055;-67
2021/07/05 02:57:47;;;;;;;2.00;1.33;;;17.20;20.10;;;;;;5108449;28;20055;-67
2021/07/05 03:00:37;;;;;;;3.00;1.23;;;17.30;20.00;;;;;;5098440;28;20598;-67
2021/07/05 03:03:28;;;;;;;1.00;0.90;;;17.20;20.00;;;;;;5104271;28;20536;-67
2021/07/05 03:06:16;;;;;;;2.95;1.20;;;17.30;20.00;;;;;;5099833;28;20166;-68
2021/07/05 03:09:05;;;;;;;2.05;1.23;;;17.30;20.00;;;;;;5098142;28;20044;-67
2021/07/05 03:11:53;;;;;;;5.35;1.63;;;17.30;20.00;;;;;;5109754;28;20036;-67
2021/07/05 03:14:41;;;;;;;3.60;1.50;;;17.30;20.00;;;;;;5101446;28;20051;-68
2021/07/05 03:17:31;;;;;;;2.47;1.10;;;17.30;20.00;;;;;;5102142;27;20055;-68
2021/07/05 03:20:23;;;;;;;2.72;1.10;;;17.30;20.00;;;;;;5106614;27;20529;-67
2021/07/05 03:23:14;;;;;;;2.40;1.40;;;17.30;20.20;;;;;;5106841;27;20375;-66
2021/07/05 03:26:03;;;;;;;2.40;1.20;;;17.20;20.70;;;;;;5102190;27;20391;-67
2021/07/05 03:28:52;;;;;;;3.45;1.45;;;17.30;20.30;;;;;;5105989;27;20051;-67
2021/07/05 03:31:40;;;;;;;2.28;1.13;;;17.30;19.70;;;;;;5103675;27;20055;-68
2021/07/05 03:34:29;;;;;;;2.97;1.17;;;17.40;20.10;;;;;;5101994;27;20113;-67
2021/07/05 03:37:19;;;;;;;2.90;1.58;;;17.30;19.00;;;;;;5111037;27;20079;-67
2021/07/05 03:40:13;;;;;;;2.58;1.20;;;17.30;20.00;;;;;;5106418;27;20061;-67
2021/07/05 03:43:04;;;;;;;5.53;1.85;;;17.30;19.20;;;;;;5104970;27;20126;-68
2021/07/05 03:45:53;;;;;;;4.57;1.45;;;17.40;19.20;;;;;;5105765;27;20548;-67
2021/07/05 03:48:43;;;;;;;5.10;1.33;;;17.40;19.30;;;;;;5105866;27;20040;-67
2021/07/05 03:51:32;;;;;;;3.15;1.30;;;17.40;19.20;;;;;;5103662;27;20044;-67
2021/07/05 03:54:22;;;;;;;3.83;1.40;;;17.40;18.50;;;;;;5107559;27;20040;-68
2021/07/05 03:57:21;;;;;;;8.23;1.38;;;17.40;19.70;;;;;;5105375;27;20040;-67
2021/07/05 04:00:13;;;;;;;1.98;1.35;;;17.20;20.00;;;;;;5105883;27;20560;-68
2021/07/05 04:03:01;;;;;;;3.63;1.30;;;17.30;20.00;;;;;;5105068;27;20192;-68
2021/07/05 04:05:51;;;;;;;4.32;1.40;;;17.40;20.10;;;;;;5102739;27;20047;-68
2021/07/05 04:08:39;;;;;;;2.13;1.38;;;17.30;18.80;;;;;;5105342;27;20047;-68
2021/07/05 04:11:31;;;;;;;2.53;1.70;;;17.40;18.50;;;;;;5104047;27;20371;-68
2021/07/05 04:14:19;;;;;;;5.10;1.48;;;17.40;18.70;;;;;;5104638;27;20443;-68
2021/07/05 04:17:08;;;;;;;5.88;1.55;;;17.70;16.70;;;;;;5110208;27;20055;-67
2021/07/05 04:19:56;;;;;;;2.38;1.13;;;17.80;15.00;;;;;;5107060;27;20414;-67
2021/07/05 04:22:45;;;;;;;3.17;1.35;;;17.60;16.60;;;;;;5110089;27;20061;-67
2021/07/05 04:25:35;;;;;;;2.22;1.10;;;17.60;15.70;;;;;;5105556;27;20043;-68
2021/07/05 04:28:24;;;;;;;1.67;1.00;;;17.60;16.00;;;;;;5105131;27;20048;-68
2021/07/05 04:31:13;;;;;;;2.03;1.35;;;17.60;16.10;;;;;;5102349;27;20048;-67
2021/07/05 04:34:02;;;;;;;2.28;1.58;;;17.60;15.90;;;;;;5108972;27;20391;-69
2021/07/05 04:36:50;;;;;;;2.13;1.27;;;17.60;16.60;;;;;;5104741;27;20048;-67
2021/07/05 04:39:38;;;;;;;2.63;1.30;;;17.60;16.60;;;;;;5103998;27;20054;-67
2021/07/05 04:42:27;;;;;;;1.48;1.13;;;17.60;16.60;;;;;;5090771;27;20054;-67
2021/07/05 04:45:20;;;;;;;4.05;1.50;;;17.60;16.00;;;;;;5104667;27;20392;-67
2021/07/05 04:48:08;;;;;;;4.63;1.50;;;17.60;16.30;;;;;;5105474;27;20762;-68
2021/07/05 04:51:00;;;;;;;1.88;1.40;;;17.80;15.40;;;;;;5101850;27;20048;-67
2021/07/05 04:53:48;;;;;;;1.45;1.35;;;17.80;15.40;;;;;;5106384;27;20039;-67
2021/07/05 04:56:37;;;;;;;9.95;1.80;;;17.90;15.20;;;;;;5101071;27;20051;-66
2021/07/05 04:59:26;;;;;;;3.65;1.45;;;17.90;14.70;;;;;;5103907;27;20093;-67
2021/07/05 05:02:16;;;;;;;2.85;1.60;;;17.90;13.30;;;;;;5102958;27;20044;-67
2021/07/05 05:05:06;;;;;;;2.97;1.38;;;18.10;13.40;;;;;;5104727;27;20055;-68
2021/07/05 05:07:55;;;;;;;2.15;1.58;;;18.20;13.40;;;;;;5104033;27;20062;-68
2021/07/05 05:10:43;;;;;;;3.08;1.50;;;18.30;13.50;;;;;;5109621;27;20048;-68
2021/07/05 05:13:32;;;;;;;2.20;1.27;;;18.20;13.10;;;;;;5094313;28;20044;-68
2021/07/05 05:16:20;;;;;;;2.78;1.33;;;18.20;12.70;;;;;;5094373;27;20384;-68
2021/07/05 05:19:10;;;;;;;4.78;1.20;;;18.30;12.20;;;;;;5103607;27;20047;-67
2021/07/05 05:21:59;;;;;;;5.55;1.50;;;18.30;12.50;;;;;;5110755;27;20051;-67
2021/07/05 05:24:48;;;;;;;4.28;1.30;;;18.30;11.70;;;;;;5101442;27;20054;-68
2021/07/05 05:27:36;;;;;;;2.17;1.23;;;18.30;11.80;;;;;;5104443;27;20134;-67
2021/07/05 05:30:26;;;;;;;2.17;1.23;;;18.40;11.70;;;;;;5098796;27;20063;-68
2021/07/05 05:33:14;;;;;;;3.00;1.00;;;18.40;11.60;;;;;;5103591;27;20039;-68
2021/07/05 05:36:04;;;;;;;2.33;1.10;;;18.40;11.10;;;;;;5106129;27;20043;-67
2021/07/05 05:38:53;;;;;;;1.95;1.10;;;18.50;11.20;;;;;;5108098;27;20091;-67
2021/07/05 05:41:41;;;;;;;6.00;1.30;;;18.70;10.40;;;;;;5107178;27;20044;-67
2021/07/05 05:44:30;;;;;;;2.15;1.52;;;18.60;10.00;;;;;;5105161;27;20130;-68
2021/07/05 05:47:19;;;;;;;2.10;1.20;;;18.80;9.50;;;;;;5100414;27;20048;-68
2021/07/05 05:50:09;;;;;;;3.63;1.20;;;18.70;10.00;;;;;;5093790;27;20703;-67
2021/07/05 05:52:58;;;;;;;3.55;1.13;;;18.70;10.10;;;;;;5075358;27;20048;-67
2021/07/05 05:55:47;;;;;;;2.15;1.13;;;18.50;12.00;;;;;;5101747;27;20047;-67
2021/07/05 05:58:39;;;;;;;1.90;1.40;;;18.40;12.20;;;;;;5104363;27;20048;-67
2021/07/05 06:01:31;;;;;;;3.60;1.42;;;18.50;11.50;;;;;;5101117;27;20699;-67
2021/07/05 06:04:20;;;;;;;3.55;1.58;;;18.50;11.50;;;;;;5101467;27;20097;-68
2021/07/05 06:07:08;;;;;;;1.33;0.93;;;18.40;11.30;;;;;;5103707;27;20042;-68
2021/07/05 06:09:58;;;;;;;4.35;1.30;;;18.60;11.60;;;;;;5099722;27;20051;-67
2021/07/05 06:12:47;;;;;;;3.10;1.30;;;18.50;11.50;;;;;;5105551;27;20124;-67
2021/07/05 06:15:36;;;;;;;3.08;1.20;;;18.50;12.10;;;;;;5103134;27;20502;-68
2021/07/05 06:18:25;;;;;;;1.10;1.00;;;18.50;11.60;;;;;;5104057;27;20055;-67
2021/07/05 06:21:13;;;;;;;2.83;1.20;;;18.50;11.50;;;;;;5099926;27;20044;-68
2021/07/05 06:24:01;;;;;;;6.22;1.15;;;18.50;11.70;;;;;;5104145;27;20171;-67
2021/07/05 06:26:51;;;;;;;2.50;1.27;;;18.50;11.80;;;;;;5109220;27;20485;-66
2021/07/05 06:29:40;;;;;;;1.85;1.15;;;18.50;13.40;;;;;;5106008;27;20051;-68
2021/07/05 06:32:28;;;;;;;5.18;1.60;;;18.60;13.80;;;;;;5105296;28;20051;-67
2021/07/05 06:35:17;;;;;;;5.32;1.40;;;18.50;15.90;;;;;;5102521;28;20082;-68
2021/07/05 06:38:05;;;;;;;3.15;1.77;;;18.50;16.60;;;;;;5099429;28;20051;-67
2021/07/05 06:40:56;;;;;;;10.15;4.45;;;18.40;16.50;;;;;;5099788;28;20047;-67
2021/07/05 06:43:46;;;;;;;3.00;1.50;;;18.40;18.80;;;;;;5101041;28;20063;-69
2021/07/05 06:46:35;;;;;;;5.10;1.25;;;18.40;17.20;;;;;;5084397;28;20055;-66
2021/07/05 06:49:23;;;;;;;3.38;1.30;;;18.50;19.70;;;;;;5099509;28;20055;-67
2021/07/05 06:52:12;;;;;;;1.83;1.42;;;18.50;20.30;;;;;;5106180;27;20040;-68
2021/07/05 06:55:01;;;;;;;4.80;1.55;;;18.60;19.60;;;;;;5109513;27;20077;-68
2021/07/05 06:57:50;;;;;;;2.85;1.20;;;18.70;21.00;;;;;;5110532;27;20513;-68
2021/07/05 07:00:40;;;;;;;3.08;1.38;;;18.80;18.50;;;;;;5111004;27;20413;-68
2021/07/05 07:03:28;;;;;;;4.15;1.40;;;18.90;20.20;;;;;;5108953;27;20069;-68
2021/07/05 07:06:17;;;;;;;4.45;1.40;;;18.80;19.40;;;;;;5090356;27;20047;-67
2021/07/05 07:09:06;;;;;;;2.15;1.20;;;18.80;20.10;;;;;;5111794;27;20405;-68
2021/07/05 07:11:54;;;;;;;3.85;1.40;;;18.90;21.10;;;;;;5107531;27;20051;-67
2021/07/05 07:14:42;;;;;;;1.83;1.30;;;18.80;20.00;;;;;;5109003;27;20044;-68
2021/07/05 07:17:36;;;;;;;2.63;1.05;;;18.80;19.50;;;;;;5091305;27;20048;-67
2021/07/05 07:20:25;;;;;;;2.30;1.35;;;18.80;21.10;;;;;;5090461;27;20532;-68
2021/07/05 07:23:13;;;;;;;2.67;1.42;;;18.70;19.30;;;;;;5106288;27;20044;-69
2021/07/05 07:26:02;;;;;;;2.22;1.20;;;18.80;22.30;;;;;;5112202;27;20044;-68
2021/07/05 07:28:52;;;;;;;3.08;1.52;;;18.70;21.40;;;;;;5104762;27;20056;-68
2021/07/05 07:31:41;;;;;;;2.92;1.20;;;18.90;21.90;;;;;;5106985;27;20097;-68
2021/07/05 07:34:30;;;;;;;5.07;1.60;;;18.90;19.70;;;;;;5109502;27;20043;-68
2021/07/05 07:37:19;;;;;;;4.72;1.40;;;19.10;21.60;;;;;;5097206;27;20044;-67
2021/07/05 07:40:15;;;;;;;1.88;1.30;;;19.10;21.30;;;;;;5107914;27;20063;-67
2021/07/05 07:43:03;;;;;;;4.50;1.10;;;19.20;20.50;;;;;;5105714;27;20054;-68
2021/07/05 07:45:52;;;;;;;3.95;1.15;;;19.20;19.20;;;;;;5104168;27;20130;-67
2021/07/05 07:48:40;;;;;;;2.65;1.10;;;19.20;16.60;;;;;;5108781;27;20538;-67
2021/07/05 07:51:30;;;;;;;2.60;1.25;;;19.40;18.50;;;;;;5103601;27;20425;-68
2021/07/05 07:54:18;;;;;;;2.35;1.55;;;19.40;17.70;;;;;;5110058;27;20042;-68
2021/07/05 07:57:07;;;;;;;3.38;2.00;;;19.50;17.00;;;;;;5106775;27;20051;-68
2021/07/05 07:59:57;;;;;;;2.92;1.13;;;19.60;18.00;;;;;;5100696;27;20140;-67
2021/07/05 08:02:46;;;;;;;5.65;1.55;;;19.60;15.10;;;;;;5104590;27;20051;-68
2021/07/05 08:05:36;;;;;;;3.90;1.38;;;19.40;15.90;;;;;;5102081;27;20052;-67
2021/07/05 08:08:25;;;;;;;4.93;1.42;;;19.40;17.90;;;;;;5080014;28;20608;-67
2021/07/05 08:11:14;;;;;;;1.92;1.00;;;19.40;15.40;;;;;;5109331;27;20050;-67
2021/07/05 08:14:04;;;;;;;2.65;1.15;;;19.60;18.00;;;;;;5107531;27;20530;-67
2021/07/05 08:16:52;;;;;;;2.63;1.20;;;19.50;17.70;;;;;;5106880;27;20491;-67
2021/07/05 08:19:41;;;;;;;2.97;1.48;;;19.60;19.80;;;;;;5102789;27;20058;-68
2021/07/05 08:22:29;;;;;;;2.50;1.05;;;19.60;18.90;;;;;;5105440;27;20410;-68
2021/07/05 08:25:20;;;;;;;8.18;1.20;;;19.80;18.10;;;;;;5107407;27;20066;-67
2021/07/05 08:28:08;;;;;;;2.20;1.27;;;19.60;14.00;;;;;;5099210;27;20043;-67
2021/07/05 08:30:59;;;;;;;2.47;1.13;;;19.60;16.40;;;;;;5107731;27;20062;-67
2021/07/05 08:33:50;;;;;;;4.70;1.25;;;19.90;17.20;;;;;;5102929;27;20123;-67
2021/07/05 08:36:40;;;;;;;2.95;1.10;;;19.80;19.80;;;;;;5103985;27;20036;-69
2021/07/05 08:39:28;;;;;;;3.75;1.08;;;19.60;15.50;;;;;;5091605;28;20047;-67
2021/07/05 08:42:23;;;;;;;3.33;1.15;;;19.60;17.00;;;;;;5104096;27;20052;-68
2021/07/05 08:45:12;;;;;;;1.58;1.15;;;19.60;16.20;;;;;;5078326;27;20047;-68
2021/07/05 08:48:04;;;;;;;2.28;1.10;;;19.70;17.50;;;;;;5101595;27;20054;-68
2021/07/05 08:50:52;;;;;;;3.25;1.63;;;19.60;15.50;;;;;;5091639;27;20514;-68
2021/07/05 08:53:42;;;;;;;1.52;1.30;;;19.90;17.20;;;;;;5101058;27;20050;-68
2021/07/05 08:56:30;;;;;;;3.38;1.65;;;19.80;21.20;;;;;;5107949;27;20055;-67
2021/07/05 08:59:22;;;;;;;3.10;1.50;;;19.60;21.10;;;;;;5105953;27;20061;-68
2021/07/05 09:02:11;;;;;;;3.33;1.63;;;19.80;17.60;;;;;;5097828;27;20036;-67
2021/07/05 09:05:00;;;;;;;2.35;1.20;;;19.60;17.90;;;;;;5105175;27;20039;-67
2021/07/05 09:07:57;;;;;;;5.40;1.20;;;19.70;18.10;;;;;;5103304;27;20047;-68
2021/07/05 09:10:48;;;;;;;3.00;1.23;;;19.70;16.20;;;;;;5103696;27;20058;-68
2021/07/05 09:13:47;;;;;;;2.65;1.30;;;19.60;16.70;;;;;;5105006;27;20051;-68
2021/07/05 09:16:39;;;;;;;2.25;1.35;;;19.60;17.80;;;;;;5071635;27;20182;-68
2021/07/05 09:19:32;;;;;;;2.47;1.00;;;19.80;21.70;;;;;;5101059;27;20096;-69
2021/07/05 09:22:20;;;;;;;2.28;1.27;;;19.70;16.90;;;;;;5098216;27;20040;-68
2021/07/05 09:25:09;;;;;;;2.15;1.50;;;19.40;18.60;;;;;;5097025;27;20220;-68
2021/07/05 09:27:59;;;;;;;3.40;1.38;;;18.80;16.30;;;;;;5103777;27;20520;-67
2021/07/05 09:30:49;;;;;;;5.43;4.07;;;19.00;21.20;;;;;;5102482;27;20099;-68
2021/07/05 09:33:47;;;;;;;2.97;1.17;;;19.10;19.20;;;;;;5098976;27;20052;-68
2021/07/05 09:36:35;;;;;;;3.22;1.30;;;19.00;23.60;;;;;;5093982;27;20044;-68
2021/07/05 09:39:25;;;;;;;2.78;1.02;;;19.10;22.20;;;;;;5098000;27;20062;-68
2021/07/05 09:42:13;;;;;;;2.53;1.08;;;19.10;19.10;;;;;;5102396;27;20051;-67
2021/07/05 09:45:07;;;;;;;1.20;0.40;;;18.90;18.30;;;;;;5101264;27;20459;-68
2021/07/05 09:48:11;;;;;;;1.70;0.80;;;18.70;15.30;;;;;;5103926;27;20456;-68
2021/07/05 09:51:05;;;;;;;1.30;0.85;;;18.70;15.70;;;;;;5101243;27;20040;-67
2021/07/05 09:53:54;;;;;;;7.43;1.42;;;18.80;17.50;;;;;;5102620;27;20043;-68
2021/07/05 09:56:43;;;;;;;1.10;0.68;;;18.90;22.40;;;;;;5100582;27;20498;-68
2021/07/05 09:59:32;;;;;;;3.95;1.20;;;18.90;17.70;;;;;;5099569;27;20075;-69
2021/07/05 10:02:21;;;;;;;2.15;0.90;;;18.70;19.10;;;;;;5102900;28;20040;-68
2021/07/05 10:05:14;;;;;;;1.80;0.85;;;18.90;19.40;;;;;;5101315;27;20048;-69
2021/07/05 10:08:06;;;;;;;7.07;4.40;;;18.90;19.20;;;;;;5102728;27;20104;-67
2021/07/05 10:11:04;;;;;;;3.67;2.20;;;18.80;21.10;;;;;;5102491;27;20044;-68
2021/07/05 10:13:52;;;;;;;1.92;1.30;;;19.00;21.10;;;;;;5100303;27;20181;-68
2021/07/05 10:16:42;;;;;;;2.15;1.15;;;19.10;23.10;;;;;;5100583;27;20050;-68
2021/07/05 10:19:31;;;;;;;2.03;1.30;;;18.80;22.60;;;;;;5102209;27;20058;-69
2021/07/05 10:22:20;;;;;;;2.38;1.30;;;18.70;25.90;;;;;;5098890;27;20044;-67
2021/07/05 10:25:11;;;;;;;3.08;1.40;;;18.70;28.00;;;;;;5097205;27;20059;-69
2021/07/05 10:28:00;;;;;;;5.80;1.77;;;18.60;28.30;;;;;;5102470;27;20266;-69
2021/07/05 10:30:51;;;;;;;3.03;1.63;;;18.50;33.60;;;;;;5099528;27;20050;-68
2021/07/05 10:33:39;;;;;;;4.38;1.42;;;18.70;35.10;;;;;;5098598;28;20512;-69
2021/07/05 10:36:32;;;;;;;3.20;1.40;;;18.70;30.00;;;;;;5097394;28;20100;-69
2021/07/05 10:39:22;;;;;;;1.85;1.05;;;18.70;31.00;;;;;;5092428;28;20140;-68
2021/07/05 10:42:33;;;;;;;6.20;1.42;;;18.70;29.80;;;;;;5083026;28;20052;-68
2021/07/05 10:45:25;;;;;;;3.80;1.20;;;18.90;33.90;;;;;;5101557;28;20116;-67
2021/07/05 10:48:14;;;;;;;1.92;1.30;;;19.00;29.50;;;;;;5097585;28;20057;-69
2021/07/05 10:51:04;;;;;;;3.15;1.52;;;18.80;28.10;;;;;;5096742;28;20093;-68
2021/07/05 10:53:55;;;;;;;3.33;1.88;;;19.00;28.20;;;;;;5101359;28;20047;-68
2021/07/05 10:56:44;;;;;;;3.17;1.27;;;19.30;28.50;;;;;;5101610;28;20409;-69
2021/07/05 10:59:40;;;;;;;2.80;1.15;;;19.20;26.50;;;;;;5099724;28;20052;-69
2021/07/05 11:02:41;;;;;;;2.85;1.35;;;19.30;25.60;;;;;;5103138;28;20132;-68
2021/07/05 11:05:51;;;;;;;2.15;1.10;;;19.40;25.10;;;;;;5101127;28;20066;-69
2021/07/05 11:08:43;;;;;;;2.55;1.30;;;19.50;24.00;;;;;;5106372;28;20044;-68
2021/07/05 11:11:32;;;;;;;2.45;1.20;;;19.50;24.20;;;;;;5101672;28;20051;-68
2021/07/05 11:14:23;;;;;;;1.13;0.85;;;19.60;24.90;;;;;;5106354;28;20123;-68
2021/07/05 11:17:23;;;;;;;1.85;0.93;;;19.80;20.00;;;;;;5101195;28;20051;-68
2021/07/05 11:20:14;;;;;;;2.25;1.40;;;20.00;21.90;;;;;;5100009;28;20641;-68
2021/07/05 11:23:02;;;;;;;1.42;1.10;;;20.40;20.40;;;;;;5105957;28;20122;-69
2021/07/05 11:26:17;;;;;;;2.08;1.17;;;20.50;18.60;;;;;;5094600;28;20062;-69
2021/07/05 11:29:22;;;;;;;3.00;1.15;;;20.50;15.40;;;;;;5107570;28;20533;-69
2021/07/05 11:32:11;;;;;;;1.48;1.00;;;20.60;16.80;;;;;;5088024;28;20067;-69
2021/07/05 11:35:01;;;;;;;2.60;1.05;;;20.40;16.60;;;;;;5102827;27;20058;-68
2021/07/05 11:37:54;;;;;;;2.00;1.27;;;20.10;18.30;;;;;;5107072;27;20039;-69
2021/07/05 11:40:46;;;;;;;1.75;1.23;;;20.20;19.20;;;;;;5103512;27;20085;-69
2021/07/05 11:43:51;;;;;;;3.03;1.70;;;20.00;19.30;;;;;;5101292;27;20395;-70
2021/07/05 11:46:50;;;;;;;2.70;0.95;;;19.90;18.10;;;;;;5108845;27;20085;-67
2021/07/05 11:49:39;;;;;;;11.95;9.02;;;19.90;18.20;;;;;;5107205;27;20052;-68
2021/07/05 11:52:29;;;;;;;5.80;5.07;;;19.80;19.00;;;;;;5104306;27;20532;-69
2021/07/05 11:55:18;;;;;;;4.50;1.80;;;20.00;20.20;;;;;;5108076;27;20055;-68
2021/07/05 11:58:09;;;;;;;1.75;1.10;;;19.90;19.90;;;;;;5109336;27;20947;-70
2021/07/05 12:01:11;;;;;;;3.38;1.38;;;19.90;19.20;;;;;;5103507;27;20050;-69
2021/07/05 12:04:01;;;;;;;2.10;1.15;;;19.90;18.90;;;;;;5105860;27;20090;-69
2021/07/05 12:06:50;;;;;;;1.92;1.40;;;20.10;16.00;;;;;;5101537;27;20047;-70
2021/07/05 12:09:41;;;;;;;2.10;1.02;;;20.30;16.80;;;;;;5102513;27;20047;-70
2021/07/05 12:12:30;;;;;;;1.25;1.10;;;20.20;16.80;;;;;;5105547;27;20043;-70
2021/07/05 12:15:22;;;;;;;3.28;1.50;;;20.40;16.70;;;;;;5092147;27;20224;-69
2021/07/05 12:18:15;;;;;;;2.17;1.30;;;20.40;15.20;;;;;;5092593;27;20055;-69
2021/07/05 12:21:06;;;;;;;2.58;1.10;;;20.40;14.80;;;;;;5101123;27;20422;-69
2021/07/05 12:24:08;;;;;;;2.75;1.35;;;20.50;13.70;;;;;;5107558;27;20055;-69
2021/07/05 12:27:00;;;;;;;2.30;1.20;;;20.80;13.70;;;;;;5086709;27;20035;-70
2021/07/05 12:29:52;;;;;;;2.25;1.45;;;21.20;9.70;;;;;;5087264;27;20081;-69
2021/07/05 12:32:42;;;;;;;2.75;1.50;;;21.00;10.90;;;;;;5087884;27;20058;-69
2021/07/05 12:35:31;;;;;;;4.05;1.30;;;21.10;11.30;;;;;;5088596;27;20056;-68
2021/07/05 12:38:21;;;;;;;3.63;1.38;;;20.40;11.20;;;;;;5102792;27;20507;-69
2021/07/05 12:41:10;;;;;;;2.60;1.10;;;20.50;13.40;;;;;;5102593;27;20175;-69
2021/07/05 12:44:13;;;;;;;2.97;1.52;;;20.40;13.50;;;;;;5107996;27;20051;-68
2021/07/05 12:47:03;;;;;;;1.80;1.30;;;20.70;12.90;;;;;;5103084;27;20536;-68
2021/07/05 12:49:53;;;;;;;2.50;1.20;;;20.50;13.10;;;;;;5099791;27;20039;-69
2021/07/05 12:52:58;;;;;;;3.40;1.30;;;20.50;13.70;;;;;;5104167;27;20052;-68
2021/07/05 12:55:57;;;;;;;2.95;1.30;;;20.60;13.40;;;;;;5090123;27;20132;-69
2021/07/05 12:58:49;;;;;;;2.70;1.60;;;20.40;12.70;;;;;;5105910;27;20244;-68
2021/07/05 13:01:40;;;;;;;2.05;1.38;;;20.70;11.90;;;;;;5108180;27;20069;-69
2021/07/05 13:04:29;;;;;;;2.42;1.52;;;21.20;10.00;;;;;;5104201;27;20403;-69
2021/07/05 13:07:22;;;;;;;2.15;1.35;;;21.50;8.60;;;;;;5102932;27;20044;-70
2021/07/05 13:10:12;;;;;;;3.17;1.27;;;21.50;8.10;;;;;;5103323;27;20047;-69
2021/07/05 13:13:02;;;;;;;2.88;1.30;;;21.70;6.90;;;;;;5105105;27;20403;-69
2021/07/05 13:15:50;;;;;;;1.55;1.02;;;22.20;6.70;;;;;;5073923;27;20056;-69
2021/07/05 13:18:40;;;;;;;1.40;0.70;;;22.50;2.10;;;;;;5102838;27;20410;-68
2021/07/05 13:21:31;;;;;;;1.33;0.60;;;22.50;1.00;;;;;;5103590;27;20055;-68
2021/07/05 13:24:22;;;;;;;1.50;0.75;;;22.60;1.00;;;;;;5086820;27;20044;-69
2021/07/05 13:27:17;;;;;;;1.95;0.60;;;22.70;1.00;;;;;;5102887;27;20040;-69
2021/07/05 13:30:12;;;;;;;0.65;0.50;;;22.50;1.00;;;;;;5110589;27;20047;-69
2021/07/05 13:33:03;;;;;;;0.63;0.50;;;22.60;1.00;;;;;;5106548;27;20043;-69
2021/07/05 13:35:59;;;;;;;1.42;0.70;;;22.20;1.00;;;;;;5102618;27;20067;-69
2021/07/05 13:38:48;;;;;;;0.82;0.70;;;22.00;1.00;;;;;;5103787;27;20043;-69
2021/07/05 13:41:36;;;;;;;0.68;0.50;;;21.80;1.00;;;;;;5099047;28;20048;-69
2021/07/05 13:44:26;;;;;;;4.40;1.10;;;21.70;2.50;;;;;;5107103;27;20043;-69
2021/07/05 13:47:21;;;;;;;1.55;0.73;;;21.20;7.50;;;;;;5102482;27;20044;-68
2021/07/05 13:50:18;;;;;;;2.92;0.70;;;20.70;8.20;;;;;;5104756;27;20051;-69
2021/07/05 13:53:21;;;;;;;0.50;0.50;;;21.00;5.40;;;;;;5099609;27;20054;-68
2021/07/05 13:56:11;;;;;;;0.68;0.50;;;20.40;9.00;;;;;;5095690;27;20509;-69
2021/07/05 13:59:00;;;;;;;1.70;0.80;;;20.00;14.20;;;;;;5105196;27;20043;-68
2021/07/05 14:01:48;;;;;;;2.10;0.73;;;20.00;18.70;;;;;;5100853;27;20047;-69
2021/07/05 14:04:41;;;;;;;2.05;0.65;;;20.30;18.50;;;;;;5107314;27;20050;-69
2021/07/05 14:07:29;;;;;;;1.35;0.80;;;20.40;15.20;;;;;;5106679;27;20157;-68
2021/07/05 14:10:19;;;;;;;2.55;0.60;;;20.80;15.20;;;;;;5106577;27;20471;-70
2021/07/05 14:13:09;;;;;;;2.55;0.50;;;21.10;12.30;;;;;;5103973;28;20051;-69
2021/07/05 14:15:58;;;;;;;2.60;1.20;;;21.70;8.30;;;;;;5101069;27;20091;-69
2021/07/05 14:18:47;;;;;;;1.88;1.02;;;22.00;8.50;;;;;;5101179;27;20108;-69
2021/07/05 14:21:35;;;;;;;0.88;0.60;;;21.70;8.30;;;;;;5099840;27;20056;-70
2021/07/05 14:24:23;;;;;;;0.98;0.68;;;22.00;9.30;;;;;;5103435;27;20503;-69
2021/07/05 14:27:14;;;;;;;2.13;0.90;;;21.90;6.80;;;;;;5108474;27;20039;-70
2021/07/05 14:30:05;;;;;;;0.73;0.60;;;22.20;5.30;;;;;;5100731;27;20079;-68
2021/07/05 14:32:53;;;;;;;1.00;0.50;;;22.30;4.90;;;;;;5102127;27;20039;-69
2021/07/05 14:35:42;;;;;;;0.70;0.40;;;22.60;1.20;;;;;;5102644;28;20075;-69
2021/07/05 14:38:31;;;;;;;3.55;0.70;;;22.90;1.00;;;;;;5095091;28;20115;-69
2021/07/05 14:41:20;;;;;;;1.05;0.57;;;23.10;1.00;;;;;;5099063;27;20463;-69
2021/07/05 14:44:10;;;;;;;1.25;0.60;;;22.70;1.00;;;;;;5098768;28;20443;-69
2021/07/05 14:46:58;;;;;;;3.58;1.00;;;22.80;1.00;;;;;;5098171;28;20048;-69